Time;durP1;ratioP1;P1;durP2;ratioP2;P2;SDS_P1;SDS_P2;PMS_P1;PMS_P2;Temp;Humidity;BMP_temperature;BMP_pressure;BME280_temperature;BME280_humidity;BME280_pressure;Samples;Min_cycle;Max_cycle;Signal;HPM_P1;HPM_P2
2023/01/25 00:01:05;;;;;;;;;12.50;10.50;;;;;;;;119388;1195;25684;-63
2023/01/25 00:03:33;;;;;;;;;4.00;4.00;;;;;;;;119423;1195;24701;-63
2023/01/25 00:06:01;;;;;;;;;8.00;7.00;;;;;;;;119413;1190;26049;-63
2023/01/25 00:08:30;;;;;;;;;6.00;6.00;;;;;;;;119396;1195;25946;-62
2023/01/25 00:10:58;;;;;;;;;8.67;7.00;;;;;;;;119422;1195;24880;-63
2023/01/25 00:13:26;;;;;;;;;10.50;8.50;;;;;;;;119398;1185;25134;-63
2023/01/25 00:16:01;;;;;;;;;9.67;8.67;;;;;;;;119414;1195;24982;-63
2023/01/25 00:18:29;;;;;;;;;8.00;8.00;;;;;;;;119398;1182;25617;-63
2023/01/25 00:20:58;;;;;;;;;5.00;4.00;;;;;;;;119424;1190;25565;-63
2023/01/25 00:23:26;;;;;;;;;11.50;11.50;;;;;;;;119416;1195;25689;-63
2023/01/25 00:25:57;;;;;;;;;6.50;5.00;;;;;;;;119405;1185;25292;-63
2023/01/25 00:28:26;;;;;;;;;7.50;7.00;;;;;;;;119408;1194;25705;-63
2023/01/25 00:30:59;;;;;;;;;7.33;6.67;;;;;;;;119385;1194;25237;-63
2023/01/25 00:33:36;;;;;;;;;10.00;9.50;;;;;;;;119397;1187;25298;-63
2023/01/25 00:36:33;;;;;;;;;7.00;6.00;;;;;;;;119407;1185;24957;-63
2023/01/25 00:39:02;;;;;;;;;9.00;6.00;;;;;;;;119406;1185;25421;-64
2023/01/25 00:41:30;;;;;;;;;10.50;8.50;;;;;;;;119383;1195;24748;-63
2023/01/25 00:43:59;;;;;;;;;10.00;4.50;;;;;;;;119414;1195;25696;-63
2023/01/25 00:46:27;;;;;;;;;8.33;8.00;;;;;;;;119383;1194;24803;-63
2023/01/25 00:48:56;;;;;;;;;9.00;9.00;;;;;;;;119383;1194;25564;-63
2023/01/25 00:51:24;;;;;;;;;12.00;9.00;;;;;;;;119388;1187;25570;-63
2023/01/25 00:53:53;;;;;;;;;6.50;6.50;;;;;;;;119406;1195;25622;-63
2023/01/25 00:56:21;;;;;;;;;13.00;8.00;;;;;;;;119420;1194;25514;-63
2023/01/25 00:58:49;;;;;;;;;12.67;10.33;;;;;;;;119410;1194;25053;-63
2023/01/25 01:01:17;;;;;;;;;10.33;7.00;;;;;;;;119422;1185;25287;-63
2023/01/25 01:03:46;;;;;;;;;9.00;8.00;;;;;;;;119387;1194;25253;-64
2023/01/25 01:06:14;;;;;;;;;9.00;9.00;;;;;;;;119396;1194;24830;-63
2023/01/25 01:08:42;;;;;;;;;11.50;9.50;;;;;;;;119398;1194;24863;-63
2023/01/25 01:11:12;;;;;;;;;10.33;10.00;;;;;;;;119410;1194;25646;-64
2023/01/25 01:13:40;;;;;;;;;9.00;9.00;;;;;;;;119360;1194;26234;-63
2023/01/25 01:16:11;;;;;;;;;11.67;10.00;;;;;;;;119424;1185;25498;-63
2023/01/25 01:18:42;;;;;;;;;12.00;10.50;;;;;;;;119347;1187;25182;-63
2023/01/25 01:21:11;;;;;;;;;7.00;7.00;;;;;;;;119370;1195;25234;-63
2023/01/25 01:23:40;;;;;;;;;9.67;8.33;;;;;;;;119405;1194;25390;-63
2023/01/25 01:26:11;;;;;;;;;10.00;10.00;;;;;;;;119352;1187;25565;-63
2023/01/25 01:28:40;;;;;;;;;12.50;11.00;;;;;;;;119356;1187;25624;-63
2023/01/25 01:31:17;;;;;;;;;9.00;9.00;;;;;;;;119389;1187;24892;-63
2023/01/25 01:33:53;;;;;;;;;12.33;9.67;;;;;;;;119408;1185;24831;-63
2023/01/25 01:36:23;;;;;;;;;11.00;9.00;;;;;;;;119391;1187;24704;-63
2023/01/25 01:38:52;;;;;;;;;8.00;7.50;;;;;;;;119334;1194;25624;-63
2023/01/25 01:41:20;;;;;;;;;7.00;7.00;;;;;;;;119342;1195;25244;-63
2023/01/25 01:43:49;;;;;;;;;11.00;7.33;;;;;;;;119414;1191;25626;-63
2023/01/25 01:46:32;;;;;;;;;13.50;11.00;;;;;;;;119415;1194;25199;-63
2023/01/25 01:49:02;;;;;;;;;9.00;8.00;;;;;;;;119340;1194;25301;-63
2023/01/25 01:51:44;;;;;;;;;12.00;10.00;;;;;;;;119399;1195;25357;-63
2023/01/25 01:54:24;;;;;;;;;7.33;7.33;;;;;;;;119397;1185;25474;-63
2023/01/25 01:57:06;;;;;;;;;10.00;9.00;;;;;;;;119410;1185;25423;-63
2023/01/25 02:00:05;;;;;;;;;13.00;8.33;;;;;;;;119418;1194;24657;-63
2023/01/25 02:02:34;;;;;;;;;11.00;9.75;;;;;;;;119335;1193;25041;-63
2023/01/25 02:05:04;;;;;;;;;12.00;11.00;;;;;;;;119388;1194;25674;-63
2023/01/25 02:07:35;;;;;;;;;11.67;7.67;;;;;;;;119390;1191;25330;-63
2023/01/25 02:10:07;;;;;;;;;10.67;10.67;;;;;;;;119333;1194;25025;-63
2023/01/25 02:12:35;;;;;;;;;10.75;9.25;;;;;;;;119413;1195;25539;-63
2023/01/25 02:15:05;;;;;;;;;11.00;8.00;;;;;;;;119399;1194;25618;-63
2023/01/25 02:17:36;;;;;;;;;6.00;6.00;;;;;;;;119391;1194;25362;-64
2023/01/25 02:20:25;;;;;;;;;13.67;9.00;;;;;;;;119361;1195;25333;-63
2023/01/25 02:23:28;;;;;;;;;8.00;8.00;;;;;;;;119379;1195;24841;-63
2023/01/25 02:26:00;;;;;;;;;11.00;9.50;;;;;;;;119431;1194;25786;-63
2023/01/25 02:28:36;;;;;;;;;11.00;11.00;;;;;;;;119401;1195;25447;-63
2023/01/25 02:31:05;;;;;;;;;9.67;9.67;;;;;;;;119427;1187;24973;-63
2023/01/25 02:33:34;;;;;;;;;8.67;7.67;;;;;;;;119391;1194;25300;-62
2023/01/25 02:36:08;;;;;;;;;10.33;7.33;;;;;;;;119443;1194;24774;-63
2023/01/25 02:38:51;;;;;;;;;11.00;9.50;;;;;;;;119419;1194;24736;-63
2023/01/25 02:41:24;;;;;;;;;11.00;10.00;;;;;;;;119405;1194;25479;-63
2023/01/25 02:43:53;;;;;;;;;11.00;8.50;;;;;;;;119389;1194;25228;-63
2023/01/25 02:46:27;;;;;;;;;6.33;5.67;;;;;;;;119398;1194;25578;-63
2023/01/25 02:48:56;;;;;;;;;11.00;8.00;;;;;;;;119388;1194;25745;-63
2023/01/25 02:51:26;;;;;;;;;11.50;8.50;;;;;;;;119357;1194;25727;-63
2023/01/25 02:53:55;;;;;;;;;11.00;10.00;;;;;;;;119390;1194;25361;-63
2023/01/25 02:56:23;;;;;;;;;12.00;10.00;;;;;;;;119404;1194;24996;-63
2023/01/25 02:58:52;;;;;;;;;12.00;10.00;;;;;;;;119378;1187;25657;-63
2023/01/25 03:01:20;;;;;;;;;8.00;8.00;;;;;;;;119396;1194;25094;-63
2023/01/25 03:03:49;;;;;;;;;8.00;6.00;;;;;;;;119395;1194;25129;-63
2023/01/25 03:06:17;;;;;;;;;14.00;13.00;;;;;;;;119416;1195;25484;-63
2023/01/25 03:08:45;;;;;;;;;10.00;8.00;;;;;;;;119411;1194;25142;-63
2023/01/25 03:11:14;;;;;;;;;9.00;8.50;;;;;;;;119395;1195;25345;-63
2023/01/25 03:13:42;;;;;;;;;12.00;9.00;;;;;;;;119392;1185;25482;-63
2023/01/25 03:16:11;;;;;;;;;6.50;5.50;;;;;;;;119405;1195;25244;-63
2023/01/25 03:18:40;;;;;;;;;12.50;10.50;;;;;;;;119370;1187;25616;-63
2023/01/25 03:21:18;;;;;;;;;11.00;9.00;;;;;;;;119393;1195;25438;-63
2023/01/25 03:23:48;;;;;;;;;6.00;6.00;;;;;;;;119385;1195;25016;-63
2023/01/25 03:26:18;;;;;;;;;10.00;8.50;;;;;;;;119353;1195;25396;-63
2023/01/25 03:28:47;;;;;;;;;13.00;9.50;;;;;;;;119402;1185;25349;-63
2023/01/25 03:31:16;;;;;;;;;8.00;8.00;;;;;;;;119397;1195;24903;-63
2023/01/25 03:33:45;;;;;;;;;6.00;6.00;;;;;;;;119359;1194;25590;-63
2023/01/25 03:36:13;;;;;;;;;13.00;8.00;;;;;;;;119407;1194;24915;-63
2023/01/25 03:38:42;;;;;;;;;12.00;10.00;;;;;;;;119380;1192;24765;-63
2023/01/25 03:41:12;;;;;;;;;7.00;7.00;;;;;;;;119399;1194;25351;-63
2023/01/25 03:43:40;;;;;;;;;3.00;3.00;;;;;;;;119428;1194;25368;-63
2023/01/25 03:46:09;;;;;;;;;11.00;9.00;;;;;;;;119354;1187;25731;-63
2023/01/25 03:48:37;;;;;;;;;6.50;6.00;;;;;;;;119400;1195;24973;-63
2023/01/25 03:51:05;;;;;;;;;9.00;8.33;;;;;;;;119432;1195;24653;-63
2023/01/25 03:53:33;;;;;;;;;11.00;8.00;;;;;;;;119430;1194;24844;-63
2023/01/25 03:56:08;;;;;;;;;8.00;8.00;;;;;;;;119388;1187;25628;-63
2023/01/25 03:58:38;;;;;;;;;11.50;8.00;;;;;;;;119401;1191;25406;-63
2023/01/25 04:01:07;;;;;;;;;9.00;9.00;;;;;;;;119398;1195;24846;-63
2023/01/25 04:03:35;;;;;;;;;7.00;7.00;;;;;;;;119407;1195;24921;-63
2023/01/25 04:06:04;;;;;;;;;9.50;8.50;;;;;;;;119381;1195;25218;-63
2023/01/25 04:08:33;;;;;;;;;10.00;9.00;;;;;;;;119337;1194;24756;-63
2023/01/25 04:11:06;;;;;;;;;10.00;9.00;;;;;;;;119380;1195;25240;-63
2023/01/25 04:13:35;;;;;;;;;6.00;6.00;;;;;;;;119421;1195;25304;-63
2023/01/25 04:16:05;;;;;;;;;13.00;10.50;;;;;;;;119415;1195;25030;-63
2023/01/25 04:18:34;;;;;;;;;11.50;8.50;;;;;;;;119400;1187;25932;-63
2023/01/25 04:21:02;;;;;;;;;12.00;8.00;;;;;;;;119424;1186;25154;-63
2023/01/25 04:23:30;;;;;;;;;8.00;8.00;;;;;;;;119417;1191;24683;-62
2023/01/25 04:26:00;;;;;;;;;11.00;11.00;;;;;;;;119386;1194;25601;-62
2023/01/25 04:28:29;;;;;;;;;10.00;9.00;;;;;;;;119348;1187;24691;-62
2023/01/25 04:30:57;;;;;;;;;11.00;10.50;;;;;;;;119397;1185;25385;-62
2023/01/25 04:33:26;;;;;;;;;9.00;8.00;;;;;;;;119436;1194;24840;-62
2023/01/25 04:35:54;;;;;;;;;11.00;10.75;;;;;;;;119410;1195;25475;-62
2023/01/25 04:38:23;;;;;;;;;12.00;9.67;;;;;;;;119413;1194;24836;-63
2023/01/25 04:40:51;;;;;;;;;10.00;10.00;;;;;;;;119385;1195;25488;-63
2023/01/25 04:43:21;;;;;;;;;10.50;8.50;;;;;;;;119398;1195;25793;-63
2023/01/25 04:45:49;;;;;;;;;12.50;9.50;;;;;;;;119374;1195;25483;-62
2023/01/25 04:48:17;;;;;;;;;8.00;7.00;;;;;;;;119423;1194;25413;-63
2023/01/25 04:50:46;;;;;;;;;10.33;9.33;;;;;;;;119399;1190;25377;-62
2023/01/25 04:53:17;;;;;;;;;7.50;7.50;;;;;;;;119440;1194;25238;-62
2023/01/25 04:55:46;;;;;;;;;9.00;8.00;;;;;;;;119392;1194;25246;-63
2023/01/25 04:58:15;;;;;;;;;4.50;4.50;;;;;;;;119406;1194;25064;-63
2023/01/25 05:00:43;;;;;;;;;8.00;7.00;;;;;;;;119389;1187;25451;-63
2023/01/25 05:03:11;;;;;;;;;10.00;8.00;;;;;;;;119392;1194;24996;-63
2023/01/25 05:05:45;;;;;;;;;9.33;8.67;;;;;;;;119393;1194;24909;-63
2023/01/25 05:08:13;;;;;;;;;8.00;7.50;;;;;;;;119397;1195;25173;-62
2023/01/25 05:10:41;;;;;;;;;8.00;8.00;;;;;;;;119403;1194;25176;-62
2023/01/25 05:13:09;;;;;;;;;9.33;6.33;;;;;;;;119423;1190;24902;-62
2023/01/25 05:15:37;;;;;;;;;9.00;9.00;;;;;;;;119390;1194;24914;-63
2023/01/25 05:18:06;;;;;;;;;10.50;9.00;;;;;;;;119408;1185;25290;-62
2023/01/25 05:20:34;;;;;;;;;7.00;7.00;;;;;;;;119396;1185;25218;-63
2023/01/25 05:23:02;;;;;;;;;11.50;10.50;;;;;;;;119401;1195;25278;-62
2023/01/25 05:28:17;;;;;;;;;9.50;7.00;;;;;;;;119392;1194;24978;-62
2023/01/25 05:30:46;;;;;;;;;9.00;8.50;;;;;;;;119425;1190;25451;-64
2023/01/25 05:33:14;;;;;;;;;10.00;9.00;;;;;;;;119393;1194;25474;-63
2023/01/25 05:35:43;;;;;;;;;9.00;9.00;;;;;;;;119400;1194;24804;-63
2023/01/25 05:38:11;;;;;;;;;11.00;9.50;;;;;;;;119403;1185;25706;-63
2023/01/25 05:40:39;;;;;;;;;10.50;9.50;;;;;;;;119400;1195;25308;-63
2023/01/25 05:43:08;;;;;;;;;8.50;6.75;;;;;;;;119367;1194;25564;-63
2023/01/25 05:45:37;;;;;;;;;12.00;9.00;;;;;;;;119384;1194;25629;-63
2023/01/25 05:48:06;;;;;;;;;8.00;8.00;;;;;;;;119397;1185;25403;-63
2023/01/25 05:50:34;;;;;;;;;10.00;7.00;;;;;;;;119405;1187;24766;-63
2023/01/25 05:53:02;;;;;;;;;10.00;7.00;;;;;;;;119400;1194;25170;-63
2023/01/25 05:55:30;;;;;;;;;9.00;8.00;;;;;;;;119421;1195;24860;-63
2023/01/25 05:57:59;;;;;;;;;10.33;8.00;;;;;;;;119410;1191;25527;-63
2023/01/25 06:00:27;;;;;;;;;11.00;8.00;;;;;;;;119624;1181;25717;-63
2023/01/25 06:02:59;;;;;;;;;10.33;6.33;;;;;;;;119418;1194;25887;-63
2023/01/25 06:05:28;;;;;;;;;10.00;8.00;;;;;;;;119345;1195;25567;-62
2023/01/25 06:07:57;;;;;;;;;11.00;10.33;;;;;;;;119372;1194;25331;-62
2023/01/25 06:10:25;;;;;;;;;9.00;7.50;;;;;;;;119400;1186;25493;-62
2023/01/25 06:12:58;;;;;;;;;9.00;8.00;;;;;;;;119440;1195;25316;-66
2023/01/25 06:15:26;;;;;;;;;6.33;6.33;;;;;;;;119393;1191;25104;-62
2023/01/25 06:17:55;;;;;;;;;14.00;11.67;;;;;;;;119318;1195;25525;-62
2023/01/25 06:20:23;;;;;;;;;9.00;8.50;;;;;;;;119409;1195;25216;-62
2023/01/25 06:22:52;;;;;;;;;13.00;8.00;;;;;;;;119406;1195;24997;-63
2023/01/25 06:25:21;;;;;;;;;8.00;6.50;;;;;;;;119419;1195;26455;-63
2023/01/25 06:27:49;;;;;;;;;12.00;11.00;;;;;;;;119407;1194;25230;-63
2023/01/25 06:30:17;;;;;;;;;10.67;8.33;;;;;;;;119416;1194;24905;-63
2023/01/25 06:32:46;;;;;;;;;11.00;8.33;;;;;;;;119408;1195;25385;-62
2023/01/25 06:35:14;;;;;;;;;9.00;6.50;;;;;;;;119348;1187;24704;-63
2023/01/25 06:37:43;;;;;;;;;6.33;6.33;;;;;;;;119402;1194;25198;-63
2023/01/25 06:40:12;;;;;;;;;10.00;8.00;;;;;;;;119389;1195;25473;-62
2023/01/25 06:42:40;;;;;;;;;6.00;6.00;;;;;;;;119406;1185;25417;-63
2023/01/25 06:45:09;;;;;;;;;13.00;10.33;;;;;;;;119399;1195;25360;-63
2023/01/25 06:47:39;;;;;;;;;9.00;8.00;;;;;;;;119398;1194;24803;-63
2023/01/25 06:50:08;;;;;;;;;11.00;9.00;;;;;;;;119398;1187;24786;-63
2023/01/25 06:52:37;;;;;;;;;13.33;11.00;;;;;;;;119390;1194;25947;-63
2023/01/25 06:55:12;;;;;;;;;8.00;8.00;;;;;;;;119405;1194;25260;-63
2023/01/25 06:57:41;;;;;;;;;14.00;10.00;;;;;;;;119431;1194;25057;-63
2023/01/25 07:00:10;;;;;;;;;10.50;9.00;;;;;;;;119414;1194;25613;-63
2023/01/25 07:02:38;;;;;;;;;10.67;10.67;;;;;;;;119429;1194;25300;-63
2023/01/25 07:05:07;;;;;;;;;6.00;5.33;;;;;;;;119399;1185;24716;-63
2023/01/25 07:07:36;;;;;;;;;9.00;9.00;;;;;;;;119435;1191;25244;-63
2023/01/25 07:10:04;;;;;;;;;9.00;9.00;;;;;;;;119391;1186;25698;-62
2023/01/25 07:12:33;;;;;;;;;11.00;8.00;;;;;;;;119418;1194;25370;-63
2023/01/25 07:15:01;;;;;;;;;7.33;7.33;;;;;;;;119432;1185;24857;-64
2023/01/25 07:17:29;;;;;;;;;11.50;10.50;;;;;;;;119423;1194;25340;-63
2023/01/25 07:19:58;;;;;;;;;8.67;8.67;;;;;;;;119423;1194;24913;-63
2023/01/25 07:22:26;;;;;;;;;9.00;8.00;;;;;;;;119403;1194;24719;-63
2023/01/25 07:24:56;;;;;;;;;13.00;9.67;;;;;;;;119440;1194;25451;-64
2023/01/25 07:27:24;;;;;;;;;9.33;9.00;;;;;;;;119406;1194;25010;-64
2023/01/25 07:29:53;;;;;;;;;10.00;8.50;;;;;;;;119400;1195;24804;-63
2023/01/25 07:32:21;;;;;;;;;10.00;10.00;;;;;;;;119394;1194;24740;-63
2023/01/25 07:34:49;;;;;;;;;7.50;7.00;;;;;;;;119421;1185;25130;-61
2023/01/25 07:37:17;;;;;;;;;5.50;5.00;;;;;;;;119398;1194;25006;-63
2023/01/25 07:39:49;;;;;;;;;11.00;8.00;;;;;;;;119429;1195;25378;-64
2023/01/25 07:42:17;;;;;;;;;8.00;6.00;;;;;;;;119393;1185;25293;-63
2023/01/25 07:44:45;;;;;;;;;8.50;7.00;;;;;;;;119426;1194;25500;-63
2023/01/25 07:47:14;;;;;;;;;12.50;10.50;;;;;;;;119414;1194;25431;-63
2023/01/25 07:49:42;;;;;;;;;7.25;7.00;;;;;;;;119430;1185;25629;-63
2023/01/25 07:52:10;;;;;;;;;8.00;8.00;;;;;;;;119410;1187;25554;-63
2023/01/25 07:54:39;;;;;;;;;11.00;7.67;;;;;;;;119404;1195;25419;-64
2023/01/25 07:57:07;;;;;;;;;10.75;8.25;;;;;;;;119389;1194;25018;-64
2023/01/25 07:59:35;;;;;;;;;10.00;9.50;;;;;;;;119406;1185;25394;-64
2023/01/25 08:02:03;;;;;;;;;9.67;7.00;;;;;;;;119433;1185;25598;-64
2023/01/25 08:04:32;;;;;;;;;10.00;8.00;;;;;;;;119426;1195;24845;-64
2023/01/25 08:07:00;;;;;;;;;9.75;9.00;;;;;;;;119388;1187;25542;-64
2023/01/25 08:09:28;;;;;;;;;8.00;8.00;;;;;;;;119436;1194;25686;-63
2023/01/25 08:11:57;;;;;;;;;5.67;5.67;;;;;;;;119418;1195;25531;-65
2023/01/25 08:14:25;;;;;;;;;9.50;9.00;;;;;;;;119411;1194;25081;-64
2023/01/25 08:16:53;;;;;;;;;8.67;8.67;;;;;;;;119345;1192;25324;-64
2023/01/25 08:19:23;;;;;;;;;8.00;7.50;;;;;;;;119331;1187;24883;-64
2023/01/25 08:21:52;;;;;;;;;6.50;6.50;;;;;;;;119375;1194;25775;-64
2023/01/25 08:24:20;;;;;;;;;10.00;8.00;;;;;;;;119414;1194;24755;-64
2023/01/25 08:26:51;;;;;;;;;9.33;8.33;;;;;;;;119395;1195;25192;-64
2023/01/25 08:29:19;;;;;;;;;11.50;10.00;;;;;;;;119397;1186;24914;-64
2023/01/25 08:31:47;;;;;;;;;5.67;5.00;;;;;;;;119400;1194;24886;-64
2023/01/25 08:34:16;;;;;;;;;9.00;7.00;;;;;;;;119399;1194;25551;-64
2023/01/25 08:36:44;;;;;;;;;6.50;6.00;;;;;;;;119389;1190;24739;-64
2023/01/25 08:39:12;;;;;;;;;7.00;7.00;;;;;;;;119402;1195;25112;-63
2023/01/25 08:41:41;;;;;;;;;8.00;8.00;;;;;;;;119358;1194;25420;-64
2023/01/25 08:44:10;;;;;;;;;11.00;9.00;;;;;;;;119403;1191;24755;-65
2023/01/25 08:46:38;;;;;;;;;12.00;10.00;;;;;;;;119313;1195;24984;-61
2023/01/25 08:49:09;;;;;;;;;10.00;10.00;;;;;;;;119428;1185;24768;-62
2023/01/25 08:51:37;;;;;;;;;9.00;6.00;;;;;;;;119419;1195;25577;-61
2023/01/25 08:54:06;;;;;;;;;10.00;7.00;;;;;;;;119399;1195;24965;-61
2023/01/25 08:56:41;;;;;;;;;8.75;7.00;;;;;;;;119433;1195;24981;-62
2023/01/25 08:59:10;;;;;;;;;12.00;8.50;;;;;;;;119316;1195;25083;-62
2023/01/25 09:01:39;;;;;;;;;10.67;10.00;;;;;;;;119364;1187;25424;-62
2023/01/25 09:04:07;;;;;;;;;11.00;8.00;;;;;;;;119353;1194;25056;-63
2023/01/25 09:06:35;;;;;;;;;12.00;11.00;;;;;;;;119403;1194;25487;-62
2023/01/25 09:09:03;;;;;;;;;13.00;11.33;;;;;;;;119418;1185;24752;-61
2023/01/25 09:11:33;;;;;;;;;10.00;7.50;;;;;;;;119391;1194;25309;-61
2023/01/25 09:14:01;;;;;;;;;12.00;10.50;;;;;;;;119378;1187;25189;-61
2023/01/25 09:16:30;;;;;;;;;6.00;4.00;;;;;;;;119406;1194;25410;-60
2023/01/25 09:19:01;;;;;;;;;16.00;8.00;;;;;;;;119418;1195;25542;-62
2023/01/25 09:21:29;;;;;;;;;16.00;10.00;;;;;;;;119413;1195;24910;-63
2023/01/25 09:23:58;;;;;;;;;14.00;11.00;;;;;;;;119401;1195;24911;-62
2023/01/25 09:26:38;;;;;;;;;17.50;12.00;;;;;;;;119425;1185;25827;-61
2023/01/25 09:29:07;;;;;;;;;9.00;7.00;;;;;;;;119421;1186;24770;-62
2023/01/25 09:31:43;;;;;;;;;13.00;11.00;;;;;;;;119136;1188;25494;-62
2023/01/25 09:34:13;;;;;;;;;13.50;12.00;;;;;;;;119411;1195;25567;-63
2023/01/25 09:36:41;;;;;;;;;12.00;11.00;;;;;;;;119432;1182;25646;-63
2023/01/25 09:39:13;;;;;;;;;11.33;10.67;;;;;;;;119402;1195;25058;-65
2023/01/25 09:42:03;;;;;;;;;13.00;11.50;;;;;;;;119417;1195;25144;-62
2023/01/25 09:44:59;;;;;;;;;12.00;9.00;;;;;;;;119401;1195;24702;-63
2023/01/25 09:47:46;;;;;;;;;13.00;10.00;;;;;;;;119421;1185;24963;-63
2023/01/25 09:50:31;;;;;;;;;13.67;11.00;;;;;;;;119410;1182;25059;-66
2023/01/25 09:53:24;;;;;;;;;18.00;11.25;;;;;;;;119380;1194;25789;-64
2023/01/25 09:55:58;;;;;;;;;14.33;11.33;;;;;;;;119404;1195;25278;-66
2023/01/25 09:58:37;;;;;;;;;12.00;9.00;;;;;;;;119336;1187;25664;-65
2023/01/25 10:01:17;;;;;;;;;13.00;10.50;;;;;;;;119402;1194;25191;-65
2023/01/25 10:04:09;;;;;;;;;14.00;10.00;;;;;;;;119347;1194;24966;-65
2023/01/25 10:06:39;;;;;;;;;10.33;10.00;;;;;;;;119426;1186;25078;-66
2023/01/25 10:09:41;;;;;;;;;15.00;12.00;;;;;;;;119371;1195;24738;-65
2023/01/25 10:12:17;;;;;;;;;12.00;11.50;;;;;;;;119427;1194;25537;-66
2023/01/25 10:14:47;;;;;;;;;13.00;10.50;;;;;;;;119384;1194;25168;-66
2023/01/25 10:17:37;;;;;;;;;11.50;10.00;;;;;;;;119403;1194;25386;-66
2023/01/25 10:20:14;;;;;;;;;12.50;12.00;;;;;;;;119413;1195;25394;-66
2023/01/25 10:23:12;;;;;;;;;3.00;1.00;;;;;;;;119404;1195;24969;-66
2023/01/25 10:25:45;;;;;;;;;13.00;12.00;;;;;;;;119222;1188;25518;-66
2023/01/25 10:28:21;;;;;;;;;14.67;9.67;;;;;;;;119403;1190;25659;-65
2023/01/25 10:31:00;;;;;;;;;12.00;10.50;;;;;;;;119413;1185;25443;-66
2023/01/25 10:33:30;;;;;;;;;10.33;8.33;;;;;;;;119423;1194;25067;-65
2023/01/25 10:36:03;;;;;;;;;13.67;11.00;;;;;;;;119393;1194;24721;-66
2023/01/25 10:38:37;;;;;;;;;12.50;10.50;;;;;;;;119335;1195;25549;-66
2023/01/25 10:41:13;;;;;;;;;12.00;10.00;;;;;;;;119415;1187;25607;-65
2023/01/25 10:43:42;;;;;;;;;12.00;11.00;;;;;;;;119380;1195;24858;-65
2023/01/25 10:46:23;;;;;;;;;14.50;11.50;;;;;;;;119399;1194;24871;-65
2023/01/25 10:48:51;;;;;;;;;13.50;9.50;;;;;;;;119407;1195;25382;-66
2023/01/25 10:51:31;;;;;;;;;12.00;12.00;;;;;;;;119410;1194;25672;-66
2023/01/25 10:54:04;;;;;;;;;10.00;8.75;;;;;;;;119338;1195;24811;-69
2023/01/25 10:56:34;;;;;;;;;10.67;9.33;;;;;;;;119364;1183;25086;-70
2023/01/25 10:59:24;;;;;;;;;10.25;9.00;;;;;;;;119375;1187;25556;-67
2023/01/25 11:01:52;;;;;;;;;14.00;10.00;;;;;;;;119417;1194;25044;-67
2023/01/25 11:04:29;;;;;;;;;10.00;8.00;;;;;;;;119340;1195;24950;-67
2023/01/25 11:06:58;;;;;;;;;14.33;9.67;;;;;;;;119407;1194;25533;-68
2023/01/25 11:09:31;;;;;;;;;11.25;8.50;;;;;;;;119388;1194;24793;-68
2023/01/25 11:12:16;;;;;;;;;8.00;7.00;;;;;;;;119396;1194;24740;-68
2023/01/25 11:14:48;;;;;;;;;10.00;8.00;;;;;;;;119372;1195;25082;-68
2023/01/25 11:17:31;;;;;;;;;10.00;6.00;;;;;;;;119404;1195;25461;-68
2023/01/25 11:20:18;;;;;;;;;11.33;9.33;;;;;;;;119343;1195;24881;-68
2023/01/25 11:22:56;;;;;;;;;11.00;10.00;;;;;;;;119359;1194;25112;-68
2023/01/25 11:25:29;;;;;;;;;10.50;8.25;;;;;;;;119392;1195;25167;-66
2023/01/25 11:28:21;;;;;;;;;9.75;7.75;;;;;;;;119316;1194;25002;-65
2023/01/25 11:30:51;;;;;;;;;8.50;7.50;;;;;;;;119358;1187;24962;-65
2023/01/25 11:33:20;;;;;;;;;10.00;7.00;;;;;;;;119414;1194;25599;-64
2023/01/25 11:36:26;;;;;;;;;12.00;8.00;;;;;;;;119340;1195;25130;-64
2023/01/25 11:39:13;;;;;;;;;14.67;12.00;;;;;;;;119403;1194;24716;-65
2023/01/25 11:42:22;;;;;;;;;16.50;13.50;;;;;;;;119421;1185;25712;-66
2023/01/25 11:45:18;;;;;;;;;12.00;9.50;;;;;;;;119396;1195;25311;-65
2023/01/25 11:48:23;;;;;;;;;18.67;13.00;;;;;;;;119485;1182;26961;-65
2023/01/25 11:51:05;;;;;;;;;12.50;11.75;;;;;;;;119420;1185;24869;-66
2023/01/25 11:53:56;;;;;;;;;12.00;10.25;;;;;;;;119415;1185;25859;-65
2023/01/25 11:56:43;;;;;;;;;16.67;10.67;;;;;;;;119392;1195;25099;-65
2023/01/25 11:59:23;;;;;;;;;13.00;11.00;;;;;;;;119414;1194;25385;-67
2023/01/25 12:01:58;;;;;;;;;17.67;14.00;;;;;;;;119404;1194;24831;-66
2023/01/25 12:04:45;;;;;;;;;11.00;9.00;;;;;;;;119411;1194;25528;-66
2023/01/25 12:07:19;;;;;;;;;14.75;13.50;;;;;;;;119414;1194;25254;-67
2023/01/25 12:10:30;;;;;;;;;15.00;11.75;;;;;;;;119409;1187;25226;-66
2023/01/25 12:13:15;;;;;;;;;19.00;12.75;;;;;;;;119404;1185;25099;-66
2023/01/25 12:15:49;;;;;;;;;20.50;13.00;;;;;;;;119396;1194;24828;-68
2023/01/25 12:18:41;;;;;;;;;12.00;7.00;;;;;;;;119408;1186;25156;-68
2023/01/25 12:21:09;;;;;;;;;12.33;12.00;;;;;;;;119438;1187;25201;-69
2023/01/25 12:24:03;;;;;;;;;13.67;11.00;;;;;;;;119428;1185;24909;-68
2023/01/25 12:26:34;;;;;;;;;16.00;11.00;;;;;;;;119390;1194;25430;-67
2023/01/25 12:29:17;;;;;;;;;16.00;13.00;;;;;;;;119402;1194;25294;-69
2023/01/25 12:32:05;;;;;;;;;17.00;12.00;;;;;;;;119408;1185;25489;-71
2023/01/25 12:34:39;;;;;;;;;15.00;12.67;;;;;;;;119402;1194;25585;-71
2023/01/25 12:37:29;;;;;;;;;12.00;10.50;;;;;;;;119419;1194;25530;-71
2023/01/25 12:40:10;;;;;;;;;20.50;11.50;;;;;;;;119381;1195;25210;-71
2023/01/25 12:42:45;;;;;;;;;16.00;12.00;;;;;;;;119392;1187;26228;-69
2023/01/25 12:45:18;;;;;;;;;16.67;12.67;;;;;;;;119439;1191;25411;-71
2023/01/25 12:47:57;;;;;;;;;16.33;15.00;;;;;;;;119354;1194;25216;-66
2023/01/25 12:50:43;;;;;;;;;16.25;14.25;;;;;;;;119378;1187;25047;-68
2023/01/25 12:53:20;;;;;;;;;16.00;13.00;;;;;;;;119389;1195;25327;-70
2023/01/25 12:55:48;;;;;;;;;15.00;13.00;;;;;;;;119441;1185;25577;-66
2023/01/25 12:58:17;;;;;;;;;19.00;13.00;;;;;;;;119364;1185;25620;-65
2023/01/25 13:01:05;;;;;;;;;12.33;12.33;;;;;;;;119389;1185;25156;-61
2023/01/25 13:03:40;;;;;;;;;14.50;13.25;;;;;;;;119423;1194;25049;-61
2023/01/25 13:06:17;;;;;;;;;17.00;12.00;;;;;;;;119410;1194;24855;-61
2023/01/25 13:08:54;;;;;;;;;19.00;14.00;;;;;;;;119386;1194;24993;-61
2023/01/25 13:11:26;;;;;;;;;14.50;12.00;;;;;;;;119392;1195;25213;-61
2023/01/25 13:14:22;;;;;;;;;12.00;11.50;;;;;;;;119393;1194;25682;-61
2023/01/25 13:16:52;;;;;;;;;12.00;11.00;;;;;;;;119415;1194;25108;-61
2023/01/25 13:19:36;;;;;;;;;16.00;14.00;;;;;;;;119407;1191;25192;-61
2023/01/25 13:22:05;;;;;;;;;16.00;11.50;;;;;;;;119413;1185;25094;-61
2023/01/25 13:25:02;;;;;;;;;18.00;16.00;;;;;;;;119386;1194;25648;-61
2023/01/25 13:27:35;;;;;;;;;12.00;11.00;;;;;;;;119384;1194;26227;-61
2023/01/25 13:30:21;;;;;;;;;16.00;13.00;;;;;;;;119401;1194;25468;-61
2023/01/25 13:32:54;;;;;;;;;17.33;14.00;;;;;;;;119415;1194;25254;-61
2023/01/25 13:35:40;;;;;;;;;19.00;12.00;;;;;;;;119414;1194;25412;-61
2023/01/25 13:38:10;;;;;;;;;16.00;11.00;;;;;;;;119406;1187;25516;-61
2023/01/25 13:40:39;;;;;;;;;19.33;14.33;;;;;;;;119414;1194;25027;-61
2023/01/25 13:43:19;;;;;;;;;6.50;6.50;;;;;;;;119416;1194;24988;-61
2023/01/25 13:45:49;;;;;;;;;18.00;14.00;;;;;;;;119404;1195;25338;-61
2023/01/25 13:48:22;;;;;;;;;15.00;12.33;;;;;;;;119401;1195;24931;-62
2023/01/25 13:50:54;;;;;;;;;17.00;14.00;;;;;;;;119405;1185;25585;-62
2023/01/25 13:53:25;;;;;;;;;16.00;11.50;;;;;;;;119312;1195;26232;-62
2023/01/25 13:55:56;;;;;;;;;13.00;13.00;;;;;;;;119418;1194;24927;-62
2023/01/25 13:58:25;;;;;;;;;14.00;12.00;;;;;;;;119415;1194;25355;-62
2023/01/25 14:00:57;;;;;;;;;13.00;9.00;;;;;;;;119421;1186;24920;-62
2023/01/25 14:03:30;;;;;;;;;16.75;14.00;;;;;;;;119350;1195;24884;-62
2023/01/25 14:06:01;;;;;;;;;14.00;13.33;;;;;;;;119421;1194;24991;-62
2023/01/25 14:08:30;;;;;;;;;15.00;13.00;;;;;;;;119418;1194;25647;-62
2023/01/25 14:10:58;;;;;;;;;16.00;11.00;;;;;;;;119400;1187;25595;-62
2023/01/25 14:13:26;;;;;;;;;13.00;12.00;;;;;;;;119413;1195;25553;-62
2023/01/25 14:15:57;;;;;;;;;14.00;13.00;;;;;;;;119397;1194;24778;-61
2023/01/25 14:18:31;;;;;;;;;11.50;10.00;;;;;;;;119405;1194;24907;-62
2023/01/25 14:21:11;;;;;;;;;19.00;17.00;;;;;;;;119437;1185;25444;-62
2023/01/25 14:23:39;;;;;;;;;16.00;14.75;;;;;;;;119431;1194;25018;-62
2023/01/25 14:26:27;;;;;;;;;20.00;13.50;;;;;;;;119424;1194;25370;-62
2023/01/25 14:28:57;;;;;;;;;17.00;14.00;;;;;;;;119111;1188;25281;-62
2023/01/25 14:31:36;;;;;;;;;18.00;13.50;;;;;;;;119371;1194;24826;-61
2023/01/25 14:34:05;;;;;;;;;17.00;14.00;;;;;;;;119427;1185;25599;-62
2023/01/25 14:36:33;;;;;;;;;13.67;13.67;;;;;;;;119396;1195;25400;-62
2023/01/25 14:39:13;;;;;;;;;19.00;14.00;;;;;;;;119417;1194;25261;-62
2023/01/25 14:41:42;;;;;;;;;13.50;12.50;;;;;;;;119421;1195;25341;-62
2023/01/25 14:44:28;;;;;;;;;17.00;12.00;;;;;;;;119396;1195;25320;-62
2023/01/25 14:47:19;;;;;;;;;14.00;13.33;;;;;;;;119377;1194;25502;-61
2023/01/25 14:49:47;;;;;;;;;18.00;12.50;;;;;;;;119416;1194;24912;-61
2023/01/25 14:52:18;;;;;;;;;14.00;13.33;;;;;;;;119384;1195;25250;-62